Time;durP1;ratioP1;P1;durP2;ratioP2;P2;SDS_P1;SDS_P2;PMS_P1;PMS_P2;Temp;Humidity;BMP_temperature;BMP_pressure;BME280_temperature;BME280_humidity;BME280_pressure;Samples;Min_cycle;Max_cycle;Signal;HPM_P1;HPM_P2
2022/07/02 00:03:01;;;;;;;19.90;13.90;;;21.80;99.90;;;;;;6165774;29;20274;-68
2022/07/02 00:06:08;;;;;;;19.25;14.35;;;21.70;99.90;;;;;;6166547;28;20561;-68
2022/07/02 00:09:14;;;;;;;24.40;16.00;;;21.70;99.90;;;;;;6178026;28;20301;-68
2022/07/02 00:12:19;;;;;;;25.92;15.80;;;21.60;99.90;;;;;;6189636;28;20274;-68
2022/07/02 00:15:26;;;;;;;21.35;16.13;;;21.60;99.90;;;;;;6189588;28;20279;-68
2022/07/02 00:18:32;;;;;;;29.55;17.23;;;21.60;99.90;;;;;;6189785;28;20282;-68
2022/07/02 00:21:39;;;;;;;23.17;15.00;;;21.60;99.90;;;;;;6189672;28;20273;-67
2022/07/02 00:24:45;;;;;;;19.77;15.43;;;21.70;99.90;;;;;;6189242;28;20464;-68
2022/07/02 00:27:50;;;;;;;22.08;14.38;;;21.60;99.90;;;;;;6189627;28;20576;-67
2022/07/02 00:30:57;;;;;;;24.38;14.55;;;21.60;99.90;;;;;;6188046;28;20277;-67
2022/07/02 00:34:02;;;;;;;16.98;13.02;;;21.70;99.90;;;;;;6189407;28;20277;-68
2022/07/02 00:37:09;;;;;;;16.90;13.43;;;21.70;99.90;;;;;;6188971;28;20273;-68
2022/07/02 00:40:15;;;;;;;19.70;13.10;;;21.60;99.90;;;;;;6189345;28;20274;-67
2022/07/02 00:43:22;;;;;;;20.38;12.73;;;21.60;99.90;;;;;;6189220;28;20339;-67
2022/07/02 00:46:29;;;;;;;17.23;12.63;;;21.60;99.90;;;;;;6188830;28;20538;-67
2022/07/02 00:49:36;;;;;;;14.68;13.27;;;21.60;99.90;;;;;;6188175;28;20278;-68
2022/07/02 00:52:42;;;;;;;15.52;13.95;;;21.60;99.90;;;;;;6188524;28;20270;-68
2022/07/02 00:55:56;;;;;;;15.93;14.07;;;21.60;99.90;;;;;;6188926;28;20278;-67
2022/07/02 00:59:03;;;;;;;19.15;14.40;;;21.60;99.90;;;;;;6188638;28;20277;-67
2022/07/02 01:02:11;;;;;;;17.73;14.63;;;21.60;99.90;;;;;;6188917;28;20273;-67
2022/07/02 01:05:18;;;;;;;18.77;15.82;;;21.60;99.90;;;;;;6174077;28;20301;-67
2022/07/02 01:11:49;;;;;;;21.98;16.02;;;21.60;99.90;;;;;;6164818;28;20274;-68
2022/07/02 01:14:56;;;;;;;22.77;16.38;;;21.60;99.90;;;;;;6164116;29;20306;-68
2022/07/02 01:18:05;;;;;;;20.83;16.33;;;21.50;99.90;;;;;;6164709;28;20463;-67
2022/07/02 01:21:12;;;;;;;20.80;16.05;;;21.50;99.90;;;;;;6164737;28;20279;-68
2022/07/02 01:24:25;;;;;;;21.42;16.35;;;21.60;99.90;;;;;;6164266;28;20274;-68
2022/07/02 01:27:31;;;;;;;19.05;16.92;;;21.70;99.90;;;;;;6163991;29;20294;-67
2022/07/02 01:30:36;;;;;;;19.85;16.70;;;21.80;99.90;;;;;;6164352;29;20274;-68
2022/07/02 01:33:41;;;;;;;19.90;16.27;;;21.70;99.90;;;;;;6164339;29;20274;-67
2022/07/02 01:36:47;;;;;;;18.67;16.73;;;21.70;99.90;;;;;;6164470;28;20566;-67
2022/07/02 01:39:53;;;;;;;20.25;17.05;;;21.70;99.90;;;;;;6164276;29;20574;-67
2022/07/02 01:42:59;;;;;;;21.27;17.25;;;21.70;99.90;;;;;;6163699;29;20561;-67
2022/07/02 01:46:04;;;;;;;19.23;16.33;;;21.70;99.90;;;;;;6164344;28;20274;-67
2022/07/02 01:49:10;;;;;;;22.67;20.27;;;21.70;99.90;;;;;;6164285;28;20584;-68
2022/07/02 01:52:16;;;;;;;22.45;17.00;;;21.70;99.90;;;;;;6163762;29;20477;-67
2022/07/02 01:55:24;;;;;;;21.33;16.95;;;21.60;99.90;;;;;;6164102;28;20270;-68
2022/07/02 01:58:29;;;;;;;18.70;15.85;;;21.60;99.90;;;;;;6164195;29;20272;-67
2022/07/02 02:01:35;;;;;;;19.90;16.77;;;21.60;99.90;;;;;;6167331;28;20279;-67
2022/07/02 02:04:40;;;;;;;18.50;16.17;;;21.60;99.90;;;;;;6168590;29;20266;-67
2022/07/02 02:07:47;;;;;;;20.70;16.80;;;21.60;99.90;;;;;;6168616;28;20298;-68
2022/07/02 02:10:53;;;;;;;18.15;16.00;;;21.60;99.90;;;;;;6192425;28;20278;-68
2022/07/02 02:13:59;;;;;;;18.45;16.30;;;21.60;99.90;;;;;;6191974;28;20269;-67
2022/07/02 02:17:05;;;;;;;21.30;17.33;;;21.60;99.90;;;;;;6192621;28;20269;-68
2022/07/02 02:20:12;;;;;;;17.90;16.10;;;21.60;99.90;;;;;;6192150;28;20277;-67
2022/07/02 02:23:18;;;;;;;21.48;16.98;;;21.60;99.90;;;;;;6192300;28;20273;-68
2022/07/02 02:26:25;;;;;;;21.50;16.77;;;21.50;99.90;;;;;;6192512;28;20274;-67
2022/07/02 02:29:31;;;;;;;19.75;16.90;;;21.50;99.90;;;;;;6191853;28;20294;-68
2022/07/02 02:32:36;;;;;;;18.15;15.80;;;21.50;99.90;;;;;;6192434;28;20278;-68
2022/07/02 02:35:43;;;;;;;18.45;16.55;;;21.60;99.90;;;;;;6192188;28;20321;-68
2022/07/02 02:38:48;;;;;;;19.15;16.35;;;21.60;99.90;;;;;;6191819;28;20277;-67
2022/07/02 02:41:55;;;;;;;19.02;15.43;;;21.60;99.90;;;;;;6191682;28;20277;-68
2022/07/02 02:45:00;;;;;;;22.73;17.10;;;21.60;99.90;;;;;;6191917;28;20274;-68
2022/07/02 02:48:06;;;;;;;20.40;16.25;;;21.60;99.90;;;;;;6191376;28;20273;-68
2022/07/02 02:51:14;;;;;;;18.80;16.38;;;21.60;99.90;;;;;;6191413;28;20270;-67
2022/07/02 02:54:20;;;;;;;20.35;16.42;;;21.60;99.90;;;;;;6191154;28;20274;-67
2022/07/02 02:57:27;;;;;;;20.70;15.82;;;21.50;99.90;;;;;;6191774;28;20274;-67
2022/07/02 03:00:32;;;;;;;21.08;17.55;;;21.60;99.90;;;;;;6191363;28;20277;-67
2022/07/02 03:03:37;;;;;;;19.58;15.38;;;21.60;99.90;;;;;;6189984;28;20273;-68
2022/07/02 03:06:43;;;;;;;20.13;16.02;;;21.70;99.90;;;;;;6167520;29;20553;-67
2022/07/02 03:09:48;;;;;;;22.13;16.17;;;21.70;99.90;;;;;;6166928;29;20598;-67
2022/07/02 03:13:00;;;;;;;23.40;15.70;;;21.70;99.90;;;;;;6166650;28;20295;-67
2022/07/02 03:16:07;;;;;;;19.75;15.65;;;21.80;99.90;;;;;;6167086;28;20274;-67
2022/07/02 03:19:12;;;;;;;20.85;15.65;;;21.80;99.90;;;;;;6166923;29;20283;-67
2022/07/02 03:22:18;;;;;;;21.73;15.57;;;21.90;99.90;;;;;;6167127;29;20271;-67
2022/07/02 03:25:23;;;;;;;20.80;14.55;;;21.90;99.90;;;;;;6167115;29;20274;-67
2022/07/02 03:28:33;;;;;;;21.20;14.80;;;21.90;99.90;;;;;;6167014;29;20274;-67
2022/07/02 03:31:38;;;;;;;21.77;15.15;;;21.90;99.90;;;;;;6167211;28;20274;-68
2022/07/02 03:34:44;;;;;;;17.58;14.52;;;21.80;99.90;;;;;;6166737;29;20279;-67
2022/07/02 03:37:49;;;;;;;20.85;14.27;;;21.90;99.90;;;;;;6166823;29;20275;-67
2022/07/02 03:40:54;;;;;;;17.27;13.90;;;21.90;99.90;;;;;;6167011;28;20278;-67
2022/07/02 03:44:01;;;;;;;20.85;14.73;;;21.90;99.90;;;;;;6166444;29;20275;-68
2022/07/02 03:47:07;;;;;;;15.02;13.10;;;22.00;99.90;;;;;;6166249;29;20293;-67
2022/07/02 03:50:12;;;;;;;17.38;12.82;;;22.00;99.90;;;;;;6166310;28;20480;-67
2022/07/02 03:53:20;;;;;;;19.15;12.88;;;22.00;99.90;;;;;;6165466;28;20279;-67
2022/07/02 03:56:25;;;;;;;13.68;11.85;;;22.00;99.90;;;;;;6166478;29;20274;-67
2022/07/02 03:59:32;;;;;;;13.65;11.88;;;22.00;99.90;;;;;;6165954;29;20565;-67
2022/07/02 04:02:37;;;;;;;14.70;11.40;;;22.00;99.90;;;;;;6166127;29;20459;-68
2022/07/02 04:05:42;;;;;;;15.77;10.05;;;22.00;99.90;;;;;;6165455;29;20266;-67
2022/07/02 04:08:54;;;;;;;10.38;9.25;;;22.10;99.90;;;;;;6174868;28;20297;-68
2022/07/02 04:11:59;;;;;;;12.38;9.27;;;22.10;99.90;;;;;;6189889;28;20561;-67
2022/07/02 04:15:07;;;;;;;11.20;8.48;;;22.10;99.90;;;;;;6189793;28;20301;-68
2022/07/02 04:18:19;;;;;;;12.75;8.65;;;22.00;99.90;;;;;;6189460;28;20262;-68
2022/07/02 04:21:24;;;;;;;11.90;8.68;;;22.10;99.90;;;;;;6189678;28;20281;-68
2022/07/02 04:24:31;;;;;;;11.18;7.47;;;22.10;99.90;;;;;;6188398;28;20273;-68
2022/07/02 04:27:36;;;;;;;10.65;7.43;;;22.10;99.90;;;;;;6189161;28;20279;-67
2022/07/02 04:30:44;;;;;;;12.65;7.68;;;22.10;99.90;;;;;;6189347;28;20293;-67
2022/07/02 04:33:49;;;;;;;10.98;6.70;;;22.20;99.90;;;;;;6189316;28;20487;-67
2022/07/02 04:36:54;;;;;;;13.30;7.18;;;22.20;99.90;;;;;;6188917;28;20569;-68
2022/07/02 04:39:59;;;;;;;7.60;6.78;;;22.30;99.90;;;;;;6188908;28;20281;-68
2022/07/02 04:43:05;;;;;;;8.88;7.00;;;22.30;99.90;;;;;;6188717;28;20279;-67
2022/07/02 04:46:13;;;;;;;10.75;6.65;;;22.20;99.90;;;;;;6189150;28;20274;-68
2022/07/02 04:49:18;;;;;;;12.27;7.10;;;22.20;99.90;;;;;;6189143;28;20274;-68
2022/07/02 04:52:23;;;;;;;9.70;7.00;;;22.10;99.90;;;;;;6188585;28;20297;-68
2022/07/02 04:55:29;;;;;;;14.95;7.20;;;22.10;99.90;;;;;;6188849;28;20273;-68
2022/07/02 04:58:34;;;;;;;10.75;7.00;;;22.00;99.90;;;;;;6188459;28;20565;-67
2022/07/02 05:01:40;;;;;;;12.20;7.00;;;22.00;99.90;;;;;;6188816;28;20297;-68
2022/07/02 05:04:46;;;;;;;15.95;7.65;;;21.90;99.90;;;;;;6178095;28;20271;-68
2022/07/02 05:07:51;;;;;;;9.38;7.82;;;21.90;99.90;;;;;;6164443;28;20270;-67
2022/07/02 05:10:57;;;;;;;13.05;8.05;;;21.90;99.90;;;;;;6164158;29;20316;-68
2022/07/02 05:14:02;;;;;;;13.27;8.23;;;22.00;99.90;;;;;;6164723;29;20437;-68
2022/07/02 05:17:09;;;;;;;12.77;8.45;;;21.90;99.90;;;;;;6164375;29;20274;-67
2022/07/02 05:20:14;;;;;;;10.90;8.25;;;21.90;99.90;;;;;;6164800;28;20279;-68
2022/07/02 05:23:20;;;;;;;11.18;8.25;;;21.90;99.90;;;;;;6164744;28;20279;-67
2022/07/02 05:26:25;;;;;;;14.15;8.68;;;21.80;99.90;;;;;;6164833;28;20275;-67
2022/07/02 05:29:30;;;;;;;10.40;8.18;;;21.90;99.90;;;;;;6164375;29;20274;-67
2022/07/02 05:32:37;;;;;;;13.57;8.85;;;21.90;99.90;;;;;;6164444;29;20294;-68
2022/07/02 05:35:42;;;;;;;8.90;7.88;;;21.90;99.90;;;;;;6163854;29;20274;-67
2022/07/02 05:38:48;;;;;;;11.38;8.50;;;22.00;99.90;;;;;;6164013;29;20286;-67
2022/07/02 05:41:55;;;;;;;13.48;8.60;;;22.00;99.90;;;;;;6164487;28;20278;-67
2022/07/02 05:45:00;;;;;;;10.75;8.52;;;22.10;99.90;;;;;;6164143;29;20274;-68
2022/07/02 05:48:07;;;;;;;12.60;7.72;;;22.10;99.90;;;;;;6164287;29;20294;-67
2022/07/02 05:51:13;;;;;;;8.80;7.75;;;22.20;99.90;;;;;;6164289;28;20299;-67
2022/07/02 05:54:18;;;;;;;9.18;7.43;;;22.20;99.90;;;;;;6163027;29;20274;-68
2022/07/02 05:57:23;;;;;;;10.38;7.40;;;22.20;99.90;;;;;;6164056;29;20274;-69
2022/07/02 06:00:28;;;;;;;8.40;7.30;;;22.20;99.90;;;;;;6164198;29;20274;-68
2022/07/02 06:03:35;;;;;;;9.82;6.60;;;22.20;99.90;;;;;;6164345;28;20271;-68
2022/07/02 06:10:04;;;;;;;8.50;6.90;;;22.10;99.90;;;;;;6181841;28;20301;-68
2022/07/02 06:13:11;;;;;;;8.45;6.70;;;22.20;99.90;;;;;;6187370;28;20507;-68
2022/07/02 06:16:16;;;;;;;10.82;7.32;;;22.20;99.90;;;;;;6187361;28;20273;-68
2022/07/02 06:19:24;;;;;;;9.63;6.55;;;22.30;99.90;;;;;;6187605;28;20278;-68
2022/07/02 06:22:30;;;;;;;7.88;7.10;;;22.50;99.90;;;;;;6187967;28;20283;-68
2022/07/02 06:25:35;;;;;;;15.48;6.55;;;22.60;99.90;;;;;;6187904;28;20274;-68
2022/07/02 06:28:41;;;;;;;8.50;6.80;;;22.70;99.90;;;;;;6187746;28;20269;-68
2022/07/02 06:31:46;;;;;;;8.15;7.28;;;22.80;99.90;;;;;;6187669;28;20293;-68
2022/07/02 06:34:53;;;;;;;7.70;6.63;;;22.90;99.90;;;;;;6187352;28;20274;-68
2022/07/02 06:37:58;;;;;;;6.65;6.07;;;23.10;99.90;;;;;;6187686;28;20580;-68
2022/07/02 06:42:18;;;;;;;6.85;6.35;;;23.20;99.90;;;;;;6187343;28;20274;-69
2022/07/02 06:44:28;;;;;;;7.13;6.50;;;23.30;99.90;;;;;;6187534;28;20278;-69
2022/07/02 06:47:33;;;;;;;7.38;6.70;;;23.30;99.90;;;;;;6190548;28;20273;-69
2022/07/02 06:50:40;;;;;;;13.48;6.80;;;23.20;99.90;;;;;;6191372;28;20278;-68
2022/07/02 06:53:46;;;;;;;6.90;6.40;;;23.20;99.90;;;;;;6191487;28;20298;-67
2022/07/02 06:56:51;;;;;;;7.53;6.88;;;23.40;99.90;;;;;;6190994;28;20577;-67
2022/07/02 06:59:56;;;;;;;7.28;6.82;;;23.40;99.90;;;;;;6191527;28;20282;-67
2022/07/02 07:03:03;;;;;;;7.60;6.85;;;23.40;99.90;;;;;;6191291;28;20359;-67
2022/07/02 07:06:14;;;;;;;7.70;6.93;;;23.50;99.90;;;;;;6169507;28;20267;-67
2022/07/02 07:09:20;;;;;;;8.20;7.25;;;23.50;99.90;;;;;;6167206;29;20302;-68
2022/07/02 07:12:26;;;;;;;10.00;8.18;;;23.60;99.90;;;;;;6167371;29;20235;-68
2022/07/02 07:15:31;;;;;;;9.02;8.13;;;23.60;99.90;;;;;;6167348;29;20279;-68
2022/07/02 07:18:36;;;;;;;9.05;7.47;;;23.70;99.90;;;;;;6167175;29;20274;-68
2022/07/02 07:21:44;;;;;;;10.02;8.30;;;23.60;99.90;;;;;;6167118;29;20282;-67
2022/07/02 07:24:49;;;;;;;11.70;8.60;;;23.70;99.90;;;;;;6166616;29;20274;-68
2022/07/02 07:27:54;;;;;;;9.30;8.38;;;23.70;99.90;;;;;;6166804;29;20274;-67
2022/07/02 07:31:00;;;;;;;11.50;8.43;;;23.70;99.90;;;;;;6167016;29;20272;-67
2022/07/02 07:34:06;;;;;;;11.45;9.13;;;23.80;99.90;;;;;;6166398;29;20621;-67
2022/07/02 07:37:15;;;;;;;10.05;9.10;;;23.80;99.90;;;;;;6166430;29;20274;-67
2022/07/02 07:40:21;;;;;;;10.27;9.25;;;23.90;99.90;;;;;;6166841;28;20278;-68
2022/07/02 07:43:26;;;;;;;10.70;9.48;;;23.80;99.90;;;;;;6167023;29;20270;-68
2022/07/02 07:46:32;;;;;;;10.63;9.60;;;23.90;99.90;;;;;;6166188;29;20286;-67
2022/07/02 07:49:37;;;;;;;10.10;9.15;;;23.80;99.90;;;;;;6166169;29;20561;-68
2022/07/02 07:52:43;;;;;;;10.88;9.85;;;23.60;99.90;;;;;;6166526;28;20294;-68
2022/07/02 07:55:49;;;;;;;9.80;8.85;;;23.80;99.90;;;;;;6166574;28;20274;-68
2022/07/02 07:58:54;;;;;;;11.20;9.57;;;23.80;99.90;;;;;;6166233;28;20431;-67
2022/07/02 08:01:59;;;;;;;10.00;8.75;;;23.90;99.90;;;;;;6166457;28;20278;-68
2022/07/02 08:05:06;;;;;;;11.32;9.70;;;24.00;99.90;;;;;;6166109;29;20267;-68
2022/07/02 08:08:15;;;;;;;12.05;9.48;;;24.00;99.90;;;;;;6169365;28;20464;-68
2022/07/02 08:11:20;;;;;;;11.00;9.60;;;24.10;99.90;;;;;;6189336;28;20277;-68
2022/07/02 08:14:25;;;;;;;9.75;8.93;;;23.90;99.90;;;;;;6189446;28;20310;-67
2022/07/02 08:17:31;;;;;;;9.73;8.77;;;23.90;99.90;;;;;;6189739;28;20274;-68
2022/07/02 08:20:37;;;;;;;9.77;8.98;;;24.10;99.90;;;;;;6189475;28;20269;-68
2022/07/02 08:23:45;;;;;;;11.18;9.00;;;24.10;99.90;;;;;;6189234;28;20277;-68
2022/07/02 08:26:51;;;;;;;10.48;9.05;;;24.20;99.90;;;;;;6189518;28;20293;-68
2022/07/02 08:29:57;;;;;;;13.50;10.70;;;24.10;99.90;;;;;;6189160;28;20279;-69
2022/07/02 08:33:02;;;;;;;14.02;9.18;;;24.10;99.90;;;;;;6189503;28;20475;-68
2022/07/02 08:36:08;;;;;;;11.00;10.00;;;24.10;99.90;;;;;;6189306;28;20347;-68
2022/07/02 08:39:14;;;;;;;10.23;9.05;;;24.10;99.90;;;;;;6189335;28;20570;-68
2022/07/02 08:42:26;;;;;;;10.45;9.60;;;24.20;99.90;;;;;;6188781;28;20265;-68
2022/07/02 08:45:33;;;;;;;12.32;9.38;;;24.20;99.90;;;;;;6189020;28;20475;-68
2022/07/02 08:48:40;;;;;;;10.85;9.75;;;24.10;99.90;;;;;;6171801;28;20278;-68
2022/07/02 08:51:48;;;;;;;12.07;9.90;;;24.00;99.90;;;;;;6188396;28;20278;-68
2022/07/02 08:54:55;;;;;;;10.65;9.38;;;24.00;99.90;;;;;;6188396;28;20297;-68
2022/07/02 08:58:01;;;;;;;10.10;9.35;;;23.80;99.90;;;;;;6188640;28;20275;-67
2022/07/02 09:01:06;;;;;;;10.70;9.73;;;23.80;99.90;;;;;;6188247;28;20448;-68
2022/07/02 09:04:14;;;;;;;11.57;8.98;;;23.70;99.90;;;;;;6182286;28;20267;-67
2022/07/02 09:07:19;;;;;;;9.52;8.80;;;23.60;99.90;;;;;;6164402;28;20274;-68
2022/07/02 09:10:27;;;;;;;8.38;7.78;;;23.50;99.90;;;;;;6164403;28;20589;-68
2022/07/02 09:13:32;;;;;;;7.30;6.80;;;23.40;99.90;;;;;;6164470;29;20294;-68
2022/07/02 09:16:38;;;;;;;5.72;5.32;;;23.40;99.90;;;;;;6164100;28;20346;-68
2022/07/02 09:19:44;;;;;;;4.57;4.32;;;23.40;99.90;;;;;;6164163;29;20280;-68
2022/07/02 09:22:51;;;;;;;2.85;2.83;;;23.40;99.90;;;;;;6164288;28;20279;-67
2022/07/02 09:25:58;;;;;;;3.58;2.70;;;23.30;99.90;;;;;;6163930;28;20279;-67
2022/07/02 09:29:04;;;;;;;2.63;2.40;;;23.40;99.90;;;;;;6164454;28;20275;-68
2022/07/02 09:32:11;;;;;;;2.25;2.25;;;23.50;99.90;;;;;;6164083;29;20275;-68
2022/07/02 09:35:21;;;;;;;2.92;1.70;;;23.60;99.90;;;;;;6164195;29;20290;-68
2022/07/02 09:38:26;;;;;;;1.88;1.70;;;23.50;99.90;;;;;;6164260;29;20270;-67
2022/07/02 09:41:33;;;;;;;1.70;1.58;;;23.60;99.90;;;;;;6163712;29;20278;-68
2022/07/02 09:44:47;;;;;;;1.45;1.45;;;23.50;99.90;;;;;;6162204;29;20278;-68
2022/07/02 09:47:53;;;;;;;1.15;1.15;;;23.50;99.90;;;;;;6163608;29;20270;-68
2022/07/02 09:51:04;;;;;;;4.78;1.27;;;23.50;99.90;;;;;;6163632;29;20278;-67
2022/07/02 09:54:11;;;;;;;1.75;1.02;;;23.50;99.90;;;;;;6163861;29;20294;-68
2022/07/02 09:57:17;;;;;;;2.83;1.10;;;23.50;99.90;;;;;;6163945;29;20302;-68
2022/07/02 10:00:24;;;;;;;4.38;1.48;;;23.70;99.90;;;;;;6163960;29;20279;-68
2022/07/02 10:03:30;;;;;;;2.95;1.40;;;23.70;99.90;;;;;;6163414;29;20294;-68
2022/07/02 10:06:35;;;;;;;2.17;1.20;;;23.80;99.90;;;;;;6163667;28;20282;-68
2022/07/02 10:09:42;;;;;;;1.75;1.45;;;23.70;99.90;;;;;;6178557;28;20498;-68
2022/07/02 10:12:48;;;;;;;1.10;1.10;;;23.70;99.90;;;;;;6187296;28;20513;-68
2022/07/02 10:15:59;;;;;;;2.83;1.10;;;23.70;99.90;;;;;;6187184;28;20298;-67
2022/07/02 10:19:05;;;;;;;1.27;1.15;;;23.60;99.90;;;;;;6187180;28;20541;-68
2022/07/02 10:22:11;;;;;;;1.30;1.30;;;23.50;99.90;;;;;;6189878;28;20270;-68
2022/07/02 10:25:18;;;;;;;1.40;1.20;;;23.50;99.90;;;;;;6191574;28;20282;-67
2022/07/02 10:28:26;;;;;;;1.25;1.15;;;23.50;99.90;;;;;;6192235;28;20484;-68
2022/07/02 10:31:37;;;;;;;2.38;1.58;;;23.70;99.90;;;;;;6191627;28;20456;-68
2022/07/02 10:34:55;;;;;;;1.35;1.20;;;23.70;99.90;;;;;;6191683;28;20307;-68
2022/07/02 10:38:02;;;;;;;4.93;1.52;;;23.50;99.90;;;;;;6191771;28;20569;-68
2022/07/02 10:41:09;;;;;;;1.13;1.13;;;23.40;99.90;;;;;;6191156;28;20462;-68
2022/07/02 10:44:16;;;;;;;3.13;1.20;;;23.50;99.90;;;;;;6191065;28;20273;-68
2022/07/02 10:47:26;;;;;;;3.22;0.90;;;23.40;99.90;;;;;;6191562;28;20278;-68
2022/07/02 10:50:45;;;;;;;1.27;1.27;;;23.20;99.90;;;;;;6191360;28;20274;-68
2022/07/02 10:53:50;;;;;;;1.50;1.10;;;23.10;99.90;;;;;;6191103;28;20274;-68
2022/07/02 10:56:56;;;;;;;3.45;1.13;;;23.20;99.90;;;;;;6190764;28;20293;-68
2022/07/02 11:00:03;;;;;;;1.00;1.00;;;23.20;99.90;;;;;;6190899;28;20273;-68
2022/07/02 11:03:15;;;;;;;2.78;1.20;;;23.20;99.90;;;;;;6191077;28;20273;-68
2022/07/02 11:06:28;;;;;;;3.03;1.00;;;23.30;99.90;;;;;;6166436;29;20286;-68
2022/07/02 11:09:33;;;;;;;1.02;1.02;;;23.30;99.90;;;;;;6166912;29;20303;-68
2022/07/02 11:12:47;;;;;;;0.98;0.90;;;23.30;99.90;;;;;;6167238;29;20271;-68
2022/07/02 11:15:54;;;;;;;1.02;1.00;;;23.20;99.90;;;;;;6166537;29;20294;-68
2022/07/02 11:19:02;;;;;;;1.00;1.00;;;23.20;99.90;;;;;;6166726;29;20377;-68
2022/07/02 11:22:08;;;;;;;1.23;1.23;;;23.20;99.90;;;;;;6166825;28;20421;-68
2022/07/02 11:25:13;;;;;;;1.45;0.88;;;23.20;99.90;;;;;;6167097;28;20302;-68
2022/07/02 11:28:18;;;;;;;0.80;0.80;;;23.00;99.90;;;;;;6166875;28;20275;-68
2022/07/02 11:31:25;;;;;;;2.63;1.00;;;23.00;99.90;;;;;;6166242;28;20270;-68
2022/07/02 11:34:30;;;;;;;1.85;0.85;;;23.00;99.90;;;;;;6166491;29;20557;-67
2022/07/02 11:37:36;;;;;;;0.75;0.75;;;23.00;99.90;;;;;;6166804;29;20298;-68
2022/07/02 11:40:41;;;;;;;1.17;1.10;;;23.00;99.90;;;;;;6166463;28;20274;-68
2022/07/02 11:43:48;;;;;;;0.80;0.80;;;22.80;99.90;;;;;;6166434;29;20279;-68
2022/07/02 11:46:57;;;;;;;1.90;0.95;;;22.80;99.90;;;;;;6165860;28;20392;-68
2022/07/02 11:50:02;;;;;;;1.10;1.10;;;22.80;99.90;;;;;;6166349;29;20271;-68
2022/07/02 11:53:09;;;;;;;1.10;1.10;;;22.70;99.90;;;;;;6166413;29;20278;-68
2022/07/02 11:56:14;;;;;;;4.85;1.10;;;22.70;99.90;;;;;;6165769;29;20480;-68
2022/07/02 11:59:21;;;;;;;2.47;0.90;;;22.50;99.90;;;;;;6166329;28;20279;-68
2022/07/02 12:02:39;;;;;;;0.90;0.90;;;22.40;99.90;;;;;;6166208;29;20274;-68
2022/07/02 12:05:51;;;;;;;3.35;0.93;;;22.30;99.90;;;;;;6166212;29;20271;-68
2022/07/02 12:08:58;;;;;;;3.55;1.83;;;22.40;99.90;;;;;;6174862;28;20302;-68
2022/07/02 12:12:04;;;;;;;1.08;1.08;;;22.30;99.90;;;;;;6189595;28;20279;-68
2022/07/02 12:15:10;;;;;;;0.90;0.90;;;22.30;99.90;;;;;;6189429;28;20273;-68
2022/07/02 12:18:19;;;;;;;2.72;0.90;;;22.30;99.90;;;;;;6189056;28;20458;-68
2022/07/02 12:21:35;;;;;;;1.23;0.90;;;22.20;99.90;;;;;;6189635;28;20275;-68
2022/07/02 12:24:40;;;;;;;1.42;0.90;;;22.00;99.90;;;;;;6189768;28;20274;-68
2022/07/02 12:27:53;;;;;;;1.40;1.00;;;21.80;99.90;;;;;;6189360;28;20366;-68
2022/07/02 12:30:58;;;;;;;2.75;0.98;;;21.80;99.90;;;;;;6189246;28;20273;-68
2022/07/02 12:34:04;;;;;;;1.00;1.00;;;22.00;99.90;;;;;;6189133;28;20270;-68
2022/07/02 12:37:20;;;;;;;2.63;1.20;;;22.00;99.90;;;;;;6188810;28;20621;-68
2022/07/02 12:40:26;;;;;;;1.40;1.40;;;22.10;99.90;;;;;;6189202;28;20274;-68
2022/07/02 12:43:31;;;;;;;2.00;1.40;;;22.10;99.90;;;;;;6188603;28;20274;-68
2022/07/02 12:46:45;;;;;;;3.38;1.23;;;22.00;99.90;;;;;;6188814;28;20277;-68
2022/07/02 12:49:56;;;;;;;1.35;1.35;;;22.00;99.90;;;;;;6188972;28;20277;-68
2022/07/02 12:53:04;;;;;;;1.27;1.10;;;22.10;99.90;;;;;;6188885;28;20298;-68
2022/07/02 12:56:11;;;;;;;1.13;1.02;;;22.10;99.90;;;;;;6188921;28;20584;-68
2022/07/02 12:59:17;;;;;;;0.95;0.93;;;22.00;99.90;;;;;;6188271;28;20275;-68
2022/07/02 13:02:28;;;;;;;1.20;1.13;;;22.10;99.90;;;;;;6188527;28;20565;-68
2022/07/02 13:05:40;;;;;;;1.75;1.30;;;22.20;99.90;;;;;;6171325;28;20266;-68
2022/07/02 13:08:45;;;;;;;1.45;1.33;;;22.40;99.90;;;;;;6164868;28;20303;-68
2022/07/02 13:11:50;;;;;;;1.15;1.15;;;22.50;99.90;;;;;;6164583;28;20275;-68
2022/07/02 13:14:56;;;;;;;1.85;1.30;;;22.40;99.90;;;;;;6164794;28;20274;-68
2022/07/02 13:18:01;;;;;;;2.17;1.42;;;22.40;99.90;;;;;;6164453;29;20453;-68
2022/07/02 13:21:09;;;;;;;1.20;1.20;;;22.30;99.90;;;;;;6164466;28;20274;-68
2022/07/02 13:24:14;;;;;;;1.60;1.42;;;22.50;99.90;;;;;;6164695;29;20279;-68
2022/07/02 13:27:20;;;;;;;1.95;1.60;;;22.50;99.90;;;;;;6164491;29;20557;-67
2022/07/02 13:30:25;;;;;;;2.65;1.40;;;22.40;99.90;;;;;;6164261;29;20561;-67
2022/07/02 13:33:30;;;;;;;1.20;1.20;;;22.70;99.90;;;;;;6164301;29;20279;-67
2022/07/02 13:36:37;;;;;;;1.50;1.40;;;22.90;99.90;;;;;;6164310;29;20274;-67
2022/07/02 13:39:43;;;;;;;1.60;1.50;;;23.10;99.80;;;;;;6164195;28;20278;-67
2022/07/02 13:42:49;;;;;;;3.90;1.45;;;23.10;99.30;;;;;;6164354;29;20275;-68
2022/07/02 13:45:54;;;;;;;2.88;1.50;;;23.20;99.20;;;;;;6164482;28;20274;-68
2022/07/02 13:48:59;;;;;;;2.28;1.67;;;23.30;98.50;;;;;;6163628;29;20590;-68
2022/07/02 13:52:06;;;;;;;1.50;1.40;;;23.80;97.80;;;;;;6164262;28;20274;-68
2022/07/02 13:55:12;;;;;;;1.40;1.40;;;24.80;96.40;;;;;;6165165;28;20598;-68
2022/07/02 13:58:17;;;;;;;1.60;1.50;;;25.70;95.40;;;;;;6168827;29;20302;-68
2022/07/02 14:01:22;;;;;;;1.40;1.40;;;25.80;94.80;;;;;;6168947;29;20278;-68
2022/07/02 14:04:28;;;;;;;3.65;1.50;;;25.40;94.40;;;;;;6168926;29;20271;-68
2022/07/02 14:07:34;;;;;;;1.65;1.52;;;25.20;94.30;;;;;;6168818;28;20557;-68
2022/07/02 14:10:40;;;;;;;2.72;1.52;;;25.90;93.40;;;;;;6191225;28;20301;-68
2022/07/02 14:13:45;;;;;;;1.38;1.20;;;26.30;92.50;;;;;;6192566;28;20274;-68
2022/07/02 14:16:53;;;;;;;3.60;1.33;;;26.90;90.50;;;;;;6192169;28;20273;-68
2022/07/02 14:19:58;;;;;;;3.63;1.25;;;26.60;88.10;;;;;;6192411;28;20557;-68
2022/07/02 14:23:05;;;;;;;2.80;1.08;;;25.80;88.60;;;;;;6192428;28;20274;-68
2022/07/02 14:26:11;;;;;;;1.95;1.80;;;25.30;88.50;;;;;;6192517;28;20273;-68
2022/07/02 14:29:16;;;;;;;2.40;1.40;;;25.00;90.00;;;;;;6192283;28;20278;-68
2022/07/02 14:32:21;;;;;;;3.40;1.02;;;25.00;90.70;;;;;;6192199;28;20274;-69
2022/07/02 14:35:27;;;;;;;3.80;1.40;;;24.90;91.00;;;;;;6191694;28;20274;-68
2022/07/02 14:38:33;;;;;;;2.80;1.58;;;24.80;90.80;;;;;;6191699;28;20600;-68
2022/07/02 14:41:39;;;;;;;4.07;1.38;;;24.70;91.40;;;;;;6191602;28;20274;-68
2022/07/02 14:44:45;;;;;;;1.30;1.25;;;24.50;91.40;;;;;;6191967;28;20278;-68
2022/07/02 14:47:50;;;;;;;1.30;1.20;;;25.00;91.50;;;;;;6191943;28;20484;-68
2022/07/02 14:50:55;;;;;;;3.08;1.70;;;25.70;90.40;;;;;;6191333;28;20278;-68
2022/07/02 14:54:03;;;;;;;1.48;1.30;;;26.10;88.90;;;;;;6191729;28;20553;-68
2022/07/02 14:57:11;;;;;;;2.28;1.33;;;26.60;88.00;;;;;;6191255;28;20278;-68
2022/07/02 15:00:16;;;;;;;2.83;1.08;;;26.50;88.00;;;;;;6191584;28;20293;-68
2022/07/02 15:03:21;;;;;;;1.52;1.40;;;26.10;88.70;;;;;;6191530;28;20274;-68
2022/07/02 15:06:26;;;;;;;4.47;1.45;;;25.80;90.00;;;;;;6191019;28;20301;-68
2022/07/02 15:09:33;;;;;;;1.33;1.30;;;25.50;89.90;;;;;;6190754;28;20397;-68
2022/07/02 15:12:41;;;;;;;3.72;1.50;;;25.30;89.40;;;;;;6191236;28;20453;-68
2022/07/02 15:16:02;;;;;;;1.30;1.20;;;25.10;88.10;;;;;;6190612;28;20561;-68
2022/07/02 15:19:08;;;;;;;4.18;1.20;;;25.00;88.40;;;;;;6190771;28;20294;-68
2022/07/02 15:22:15;;;;;;;1.73;1.20;;;25.10;88.70;;;;;;6191314;28;20474;-68
2022/07/02 15:25:23;;;;;;;2.50;1.10;;;25.60;86.50;;;;;;6191018;28;20572;-68
2022/07/02 15:28:31;;;;;;;2.47;1.13;;;27.00;83.00;;;;;;6190977;28;20436;-68
2022/07/02 15:31:41;;;;;;;5.68;1.30;;;27.80;80.80;;;;;;6190357;28;20577;-69
2022/07/02 15:34:52;;;;;;;3.45;1.50;;;27.30;79.10;;;;;;6190751;28;20465;-68
2022/07/02 15:37:58;;;;;;;3.08;1.17;;;26.80;80.50;;;;;;6190384;28;20270;-68
2022/07/02 15:41:05;;;;;;;3.80;1.55;;;27.50;78.30;;;;;;6190205;28;20277;-68
2022/07/02 15:44:11;;;;;;;2.08;1.35;;;27.60;75.00;;;;;;6189694;28;20278;-68
2022/07/02 15:47:16;;;;;;;2.22;1.10;;;27.20;76.50;;;;;;6189799;28;20294;-68
2022/07/02 15:50:22;;;;;;;2.35;1.20;;;26.80;78.10;;;;;;6189443;28;20277;-68
2022/07/02 15:53:29;;;;;;;1.63;1.50;;;26.40;78.90;;;;;;6190053;28;20269;-68
2022/07/02 15:56:38;;;;;;;1.20;1.20;;;26.20;78.60;;;;;;6189898;28;20274;-68
2022/07/02 15:59:44;;;;;;;1.80;1.50;;;26.00;80.50;;;;;;6189636;28;20297;-68
2022/07/02 16:02:50;;;;;;;5.95;1.60;;;25.50;80.40;;;;;;6189833;28;20273;-68
2022/07/02 16:05:56;;;;;;;1.55;1.33;;;25.50;80.20;;;;;;6170338;28;20266;-68
2022/07/02 16:09:02;;;;;;;3.10;1.23;;;25.40;80.00;;;;;;6165721;28;20482;-68
2022/07/02 16:12:11;;;;;;;3.55;1.42;;;25.20;80.80;;;;;;6165682;29;20278;-68